sensor_id;sensor_type;location;lat;lon;timestamp;pressure;altitude;pressure_sealevel;temperature;humidity
19777;BME280;10047;42.490;26.012;2022-10-31T00:02:19;100413.19;;;13.32;100.00
19777;BME280;10047;42.490;26.012;2022-10-31T00:04:44;100354.19;;;13.14;100.00
19777;BME280;10047;42.490;26.012;2022-10-31T00:07:10;100331.69;;;12.98;100.00
19777;BME280;10047;42.490;26.012;2022-10-31T00:09:35;100371.34;;;13.36;100.00
19777;BME280;10047;42.490;26.012;2022-10-31T00:12:01;100398.19;;;13.48;100.00
19777;BME280;10047;42.490;26.012;2022-10-31T00:14:26;100297.72;;;12.70;100.00
19777;BME280;10047;42.490;26.012;2022-10-31T00:16:51;100353.06;;;13.22;100.00
19777;BME280;10047;42.490;26.012;2022-10-31T00:19:17;100350.53;;;13.22;100.00
19777;BME280;10047;42.490;26.012;2022-10-31T00:21:42;100330.63;;;13.05;100.00
19777;BME280;10047;42.490;26.012;2022-10-31T00:24:08;100402.31;;;13.26;100.00
19777;BME280;10047;42.490;26.012;2022-10-31T00:26:33;100400.41;;;13.32;100.00
19777;BME280;10047;42.490;26.012;2022-10-31T00:28:59;100398.91;;;13.51;100.00
19777;BME280;10047;42.490;26.012;2022-10-31T00:31:24;100351.50;;;13.18;100.00
19777;BME280;10047;42.490;26.012;2022-10-31T00:33:50;100388.66;;;13.77;100.00
19777;BME280;10047;42.490;26.012;2022-10-31T00:36:17;100323.81;;;13.32;100.00
19777;BME280;10047;42.490;26.012;2022-10-31T00:38:44;100366.66;;;13.49;100.00
19777;BME280;10047;42.490;26.012;2022-10-31T00:41:11;100383.38;;;13.57;100.00
19777;BME280;10047;42.490;26.012;2022-10-31T00:43:36;100333.63;;;13.18;100.00
19777;BME280;10047;42.490;26.012;2022-10-31T00:46:02;100324.59;;;13.34;100.00
19777;BME280;10047;42.490;26.012;2022-10-31T00:48:28;100336.81;;;13.49;100.00
19777;BME280;10047;42.490;26.012;2022-10-31T00:50:54;100352.63;;;13.36;100.00
19777;BME280;10047;42.490;26.012;2022-10-31T00:53:19;100340.00;;;13.31;100.00
19777;BME280;10047;42.490;26.012;2022-10-31T00:55:44;100386.16;;;13.76;100.00
19777;BME280;10047;42.490;26.012;2022-10-31T00:58:10;100383.22;;;13.86;100.00
19777;BME280;10047;42.490;26.012;2022-10-31T01:00:35;100384.94;;;13.61;100.00
19777;BME280;10047;42.490;26.012;2022-10-31T01:03:01;100398.50;;;13.63;100.00
19777;BME280;10047;42.490;26.012;2022-10-31T01:05:26;100297.16;;;13.15;100.00
19777;BME280;10047;42.490;26.012;2022-10-31T01:07:51;100390.53;;;13.48;100.00
19777;BME280;10047;42.490;26.012;2022-10-31T01:10:17;100405.66;;;13.78;100.00
19777;BME280;10047;42.490;26.012;2022-10-31T01:12:47;100410.09;;;13.49;100.00
19777;BME280;10047;42.490;26.012;2022-10-31T01:15:16;100358.81;;;13.29;100.00
19777;BME280;10047;42.490;26.012;2022-10-31T01:17:42;100330.28;;;13.16;100.00
19777;BME280;10047;42.490;26.012;2022-10-31T01:20:09;100408.13;;;13.55;100.00
19777;BME280;10047;42.490;26.012;2022-10-31T01:22:34;100389.06;;;13.65;100.00
19777;BME280;10047;42.490;26.012;2022-10-31T01:25:00;100297.63;;;12.99;100.00
19777;BME280;10047;42.490;26.012;2022-10-31T01:27:25;100336.53;;;13.07;100.00
19777;BME280;10047;42.490;26.012;2022-10-31T01:29:51;100401.06;;;13.63;100.00
19777;BME280;10047;42.490;26.012;2022-10-31T01:32:16;100341.16;;;13.23;100.00
19777;BME280;10047;42.490;26.012;2022-10-31T01:34:41;100399.75;;;13.52;100.00
19777;BME280;10047;42.490;26.012;2022-10-31T01:37:07;100410.63;;;13.32;100.00
19777;BME280;10047;42.490;26.012;2022-10-31T01:39:32;100387.59;;;13.34;100.00
19777;BME280;10047;42.490;26.012;2022-10-31T01:41:58;100330.28;;;13.16;100.00
19777;BME280;10047;42.490;26.012;2022-10-31T01:49:23;100408.13;;;13.55;100.00
19777;BME280;10047;42.490;26.012;2022-10-31T01:51:54;100344.78;;;13.16;100.00
19777;BME280;10047;42.490;26.012;2022-10-31T01:54:21;100343.00;;;13.18;100.00
19777;BME280;10047;42.490;26.012;2022-10-31T01:56:51;100406.84;;;13.44;100.00
19777;BME280;10047;42.490;26.012;2022-10-31T01:59:19;100396.41;;;13.50;100.00
19777;BME280;10047;42.490;26.012;2022-10-31T02:01:47;100390.72;;;13.42;100.00
19777;BME280;10047;42.490;26.012;2022-10-31T02:04:15;100315.41;;;13.02;100.00
19777;BME280;10047;42.490;26.012;2022-10-31T02:06:48;100383.59;;;13.25;100.00
19777;BME280;10047;42.490;26.012;2022-10-31T02:09:15;100384.31;;;13.30;100.00
19777;BME280;10047;42.490;26.012;2022-10-31T02:11:41;100395.78;;;13.43;100.00
19777;BME280;10047;42.490;26.012;2022-10-31T02:14:06;100402.56;;;13.44;100.00
19777;BME280;10047;42.490;26.012;2022-10-31T02:16:32;100351.88;;;13.32;100.00
19777;BME280;10047;42.490;26.012;2022-10-31T02:18:57;100345.22;;;13.28;100.00
19777;BME280;10047;42.490;26.012;2022-10-31T02:21:36;100309.75;;;12.93;100.00
19777;BME280;10047;42.490;26.012;2022-10-31T02:40:36;100411.88;;;13.45;100.00
19777;BME280;10047;42.490;26.012;2022-10-31T02:43:18;100363.41;;;13.19;100.00
19777;BME280;10047;42.490;26.012;2022-10-31T02:48:28;100399.69;;;13.27;100.00
19777;BME280;10047;42.490;26.012;2022-10-31T02:51:02;100415.91;;;13.52;100.00
19777;BME280;10047;42.490;26.012;2022-10-31T02:53:35;100430.09;;;13.61;100.00
19777;BME280;10047;42.490;26.012;2022-10-31T02:56:05;100392.78;;;13.04;100.00
19777;BME280;10047;42.490;26.012;2022-10-31T02:58:35;100384.56;;;13.23;100.00
19777;BME280;10047;42.490;26.012;2022-10-31T03:01:18;100444.59;;;13.60;100.00
19777;BME280;10047;42.490;26.012;2022-10-31T03:12:01;100373.50;;;13.22;100.00
19777;BME280;10047;42.490;26.012;2022-10-31T03:14:48;100376.25;;;13.16;100.00
19777;BME280;10047;42.490;26.012;2022-10-31T03:17:36;100411.84;;;13.21;100.00
19777;BME280;10047;42.490;26.012;2022-10-31T03:20:05;100397.16;;;13.27;100.00
19777;BME280;10047;42.490;26.012;2022-10-31T03:22:33;100371.63;;;12.99;100.00
19777;BME280;10047;42.490;26.012;2022-10-31T03:25:02;100432.19;;;13.50;100.00
19777;BME280;10047;42.490;26.012;2022-10-31T03:27:31;100421.16;;;13.22;100.00
19777;BME280;10047;42.490;26.012;2022-10-31T03:30:02;100397.91;;;13.03;100.00
19777;BME280;10047;42.490;26.012;2022-10-31T03:32:35;100403.59;;;13.39;100.00
19777;BME280;10047;42.490;26.012;2022-10-31T03:35:04;100369.44;;;13.17;100.00
19777;BME280;10047;42.490;26.012;2022-10-31T03:37:32;100400.75;;;13.22;100.00
19777;BME280;10047;42.490;26.012;2022-10-31T03:39:59;100388.56;;;13.02;100.00
19777;BME280;10047;42.490;26.012;2022-10-31T03:42:29;100454.56;;;13.42;100.00
19777;BME280;10047;42.490;26.012;2022-10-31T03:44:59;100396.59;;;13.19;100.00
19777;BME280;10047;42.490;26.012;2022-10-31T03:47:26;100416.06;;;13.22;100.00
19777;BME280;10047;42.490;26.012;2022-10-31T03:49:53;100400.69;;;13.23;100.00
19777;BME280;10047;42.490;26.012;2022-10-31T03:52:45;100468.63;;;13.55;100.00
19777;BME280;10047;42.490;26.012;2022-10-31T03:55:18;100455.69;;;13.59;100.00
19777;BME280;10047;42.490;26.012;2022-10-31T04:00:13;100445.69;;;13.53;100.00
19777;BME280;10047;42.490;26.012;2022-10-31T04:02:56;100382.25;;;13.15;100.00
19777;BME280;10047;42.490;26.012;2022-10-31T04:05:23;100445.94;;;13.46;100.00
19777;BME280;10047;42.490;26.012;2022-10-31T04:07:52;100458.84;;;13.67;100.00
19777;BME280;10047;42.490;26.012;2022-10-31T04:10:19;100456.75;;;13.54;100.00
19777;BME280;10047;42.490;26.012;2022-10-31T04:12:51;100378.22;;;13.08;100.00
19777;BME280;10047;42.490;26.012;2022-10-31T04:15:19;100449.28;;;13.48;100.00
19777;BME280;10047;42.490;26.012;2022-10-31T04:17:46;100455.25;;;13.73;100.00
19777;BME280;10047;42.490;26.012;2022-10-31T04:20:16;100382.72;;;13.26;100.00
19777;BME280;10047;42.490;26.012;2022-10-31T04:22:41;100427.72;;;13.30;100.00
19777;BME280;10047;42.490;26.012;2022-10-31T04:25:07;100370.13;;;12.66;100.00
19777;BME280;10047;42.490;26.012;2022-10-31T04:27:33;100425.34;;;13.24;100.00
19777;BME280;10047;42.490;26.012;2022-10-31T04:29:58;100465.25;;;13.54;100.00
19777;BME280;10047;42.490;26.012;2022-10-31T04:32:25;100486.53;;;13.79;100.00
19777;BME280;10047;42.490;26.012;2022-10-31T04:34:50;100457.78;;;14.70;100.00
19777;BME280;10047;42.490;26.012;2022-10-31T04:37:16;100500.00;;;13.84;100.00
19777;BME280;10047;42.490;26.012;2022-10-31T04:39:41;100454.69;;;13.39;100.00
19777;BME280;10047;42.490;26.012;2022-10-31T04:42:06;100449.13;;;13.26;100.00
19777;BME280;10047;42.490;26.012;2022-10-31T04:44:32;100418.03;;;13.14;100.00
19777;BME280;10047;42.490;26.012;2022-10-31T04:46:57;100466.38;;;13.46;100.00
19777;BME280;10047;42.490;26.012;2022-10-31T04:49:23;100459.28;;;13.28;100.00
19777;BME280;10047;42.490;26.012;2022-10-31T04:51:48;100419.06;;;13.08;100.00
19777;BME280;10047;42.490;26.012;2022-10-31T04:54:13;100470.88;;;13.38;100.00
19777;BME280;10047;42.490;26.012;2022-10-31T04:56:40;100431.94;;;13.03;100.00
19777;BME280;10047;42.490;26.012;2022-10-31T04:59:05;100453.72;;;13.41;100.00
19777;BME280;10047;42.490;26.012;2022-10-31T05:01:31;100512.50;;;13.67;100.00
19777;BME280;10047;42.490;26.012;2022-10-31T05:03:56;100496.78;;;13.53;100.00
19777;BME280;10047;42.490;26.012;2022-10-31T05:06:24;100522.00;;;13.64;100.00
19777;BME280;10047;42.490;26.012;2022-10-31T05:08:49;100443.22;;;13.24;100.00
19777;BME280;10047;42.490;26.012;2022-10-31T05:11:14;100444.09;;;13.23;100.00
19777;BME280;10047;42.490;26.012;2022-10-31T05:13:40;100535.44;;;13.69;100.00
19777;BME280;10047;42.490;26.012;2022-10-31T05:16:06;100505.34;;;13.52;100.00
19777;BME280;10047;42.490;26.012;2022-10-31T05:18:31;100485.47;;;13.34;100.00
19777;BME280;10047;42.490;26.012;2022-10-31T05:20:57;100448.56;;;13.17;100.00
19777;BME280;10047;42.490;26.012;2022-10-31T05:23:22;100537.72;;;13.78;100.00
19777;BME280;10047;42.490;26.012;2022-10-31T05:25:48;100486.13;;;13.41;100.00
19777;BME280;10047;42.490;26.012;2022-10-31T05:28:13;100557.84;;;13.61;100.00
19777;BME280;10047;42.490;26.012;2022-10-31T05:30:38;100511.00;;;13.34;100.00
19777;BME280;10047;42.490;26.012;2022-10-31T05:33:04;100464.94;;;13.11;100.00
19777;BME280;10047;42.490;26.012;2022-10-31T05:35:31;100565.19;;;13.71;100.00
19777;BME280;10047;42.490;26.012;2022-10-31T05:37:57;100567.28;;;13.85;100.00
19777;BME280;10047;42.490;26.012;2022-10-31T05:40:25;100543.97;;;15.16;100.00
19777;BME280;10047;42.490;26.012;2022-10-31T05:42:52;100528.94;;;14.11;100.00
19777;BME280;10047;42.490;26.012;2022-10-31T05:45:18;100515.34;;;14.35;100.00
19777;BME280;10047;42.490;26.012;2022-10-31T05:47:58;100514.25;;;13.39;100.00
19777;BME280;10047;42.490;26.012;2022-10-31T05:50:25;100508.88;;;13.74;100.00
19777;BME280;10047;42.490;26.012;2022-10-31T05:53:01;100501.69;;;13.59;100.00
19777;BME280;10047;42.490;26.012;2022-10-31T05:55:27;100476.38;;;13.52;100.00
19777;BME280;10047;42.490;26.012;2022-10-31T05:57:53;100577.00;;;14.52;100.00
19777;BME280;10047;42.490;26.012;2022-10-31T06:00:19;100584.50;;;15.94;100.00
19777;BME280;10047;42.490;26.012;2022-10-31T06:02:45;100533.88;;;17.70;98.41
19777;BME280;10047;42.490;26.012;2022-10-31T06:05:11;100477.34;;;17.85;78.77
19777;BME280;10047;42.490;26.012;2022-10-31T06:07:37;100530.19;;;18.42;77.55
19777;BME280;10047;42.490;26.012;2022-10-31T06:10:05;100573.53;;;18.84;76.55
19777;BME280;10047;42.490;26.012;2022-10-31T06:12:31;100565.69;;;19.02;72.97
19777;BME280;10047;42.490;26.012;2022-10-31T06:14:57;100548.16;;;18.93;72.29
19777;BME280;10047;42.490;26.012;2022-10-31T06:17:22;100581.34;;;19.31;73.85
19777;BME280;10047;42.490;26.012;2022-10-31T06:19:48;100591.59;;;19.48;71.18
19777;BME280;10047;42.490;26.012;2022-10-31T06:22:13;100549.84;;;18.62;73.89
19777;BME280;10047;42.490;26.012;2022-10-31T06:24:39;100617.91;;;18.05;85.30
19777;BME280;10047;42.490;26.012;2022-10-31T06:27:05;100566.41;;;17.33;90.36
19777;BME280;10047;42.490;26.012;2022-10-31T06:29:31;100606.41;;;18.63;82.60
19777;BME280;10047;42.490;26.012;2022-10-31T06:31:56;100558.28;;;17.43;89.59
19777;BME280;10047;42.490;26.012;2022-10-31T06:34:22;100573.38;;;17.50;93.69
19777;BME280;10047;42.490;26.012;2022-10-31T06:36:47;100569.22;;;17.10;97.04
19777;BME280;10047;42.490;26.012;2022-10-31T06:39:13;100553.72;;;17.12;100.00
19777;BME280;10047;42.490;26.012;2022-10-31T06:41:39;100615.81;;;17.21;100.00
19777;BME280;10047;42.490;26.012;2022-10-31T06:44:06;100605.06;;;16.75;100.00
19777;BME280;10047;42.490;26.012;2022-10-31T06:46:31;100615.22;;;16.96;100.00
19777;BME280;10047;42.490;26.012;2022-10-31T06:48:57;100540.00;;;16.35;100.00
19777;BME280;10047;42.490;26.012;2022-10-31T06:51:22;100561.78;;;17.23;100.00
19777;BME280;10047;42.490;26.012;2022-10-31T06:53:48;100615.81;;;17.03;100.00
19777;BME280;10047;42.490;26.012;2022-10-31T06:56:13;100512.19;;;16.45;100.00
19777;BME280;10047;42.490;26.012;2022-10-31T06:58:38;100615.06;;;17.38;100.00
19777;BME280;10047;42.490;26.012;2022-10-31T07:01:04;100609.00;;;17.20;100.00
19777;BME280;10047;42.490;26.012;2022-10-31T07:03:29;100537.63;;;17.08;100.00
19777;BME280;10047;42.490;26.012;2022-10-31T07:05:55;100510.50;;;17.20;100.00
19777;BME280;10047;42.490;26.012;2022-10-31T07:08:22;100574.69;;;17.94;100.00
19777;BME280;10047;42.490;26.012;2022-10-31T07:10:53;100603.22;;;18.41;100.00
19777;BME280;10047;42.490;26.012;2022-10-31T07:13:19;100559.53;;;17.88;100.00
19777;BME280;10047;42.490;26.012;2022-10-31T07:15:49;100601.50;;;18.42;100.00
19777;BME280;10047;42.490;26.012;2022-10-31T07:18:15;100549.41;;;18.19;100.00
19777;BME280;10047;42.490;26.012;2022-10-31T07:20:40;100556.59;;;18.30;100.00
19777;BME280;10047;42.490;26.012;2022-10-31T07:23:07;100578.31;;;18.59;100.00
19777;BME280;10047;42.490;26.012;2022-10-31T07:25:32;100602.28;;;18.93;100.00
19777;BME280;10047;42.490;26.012;2022-10-31T07:27:58;100557.13;;;19.18;100.00
19777;BME280;10047;42.490;26.012;2022-10-31T07:30:23;100588.59;;;19.40;100.00
19777;BME280;10047;42.490;26.012;2022-10-31T07:32:50;100613.91;;;19.64;100.00
19777;BME280;10047;42.490;26.012;2022-10-31T07:35:19;100609.38;;;19.83;100.00
19777;BME280;10047;42.490;26.012;2022-10-31T07:37:45;100554.88;;;19.74;94.47
19777;BME280;10047;42.490;26.012;2022-10-31T07:40:11;100614.06;;;20.07;92.20
19777;BME280;10047;42.490;26.012;2022-10-31T07:42:38;100604.78;;;20.04;94.31
19777;BME280;10047;42.490;26.012;2022-10-31T07:45:04;100606.09;;;20.41;98.75
19777;BME280;10047;42.490;26.012;2022-10-31T07:47:38;100604.81;;;20.18;100.00
19777;BME280;10047;42.490;26.012;2022-10-31T07:50:04;100553.88;;;20.06;100.00
19777;BME280;10047;42.490;26.012;2022-10-31T07:52:29;100577.94;;;20.22;100.00
19777;BME280;10047;42.490;26.012;2022-10-31T07:54:55;100607.31;;;20.49;100.00
19777;BME280;10047;42.490;26.012;2022-10-31T07:57:20;100563.75;;;20.43;100.00
19777;BME280;10047;42.490;26.012;2022-10-31T07:59:45;100613.78;;;20.70;100.00
19777;BME280;10047;42.490;26.012;2022-10-31T08:02:11;100561.81;;;20.75;100.00
19777;BME280;10047;42.490;26.012;2022-10-31T08:04:36;100510.13;;;20.33;100.00
19777;BME280;10047;42.490;26.012;2022-10-31T08:07:01;100602.19;;;21.06;100.00
19777;BME280;10047;42.490;26.012;2022-10-31T08:09:27;100544.19;;;20.67;100.00
19777;BME280;10047;42.490;26.012;2022-10-31T08:11:53;100545.09;;;20.66;100.00
19777;BME280;10047;42.490;26.012;2022-10-31T08:14:18;100604.75;;;21.20;98.07
19777;BME280;10047;42.490;26.012;2022-10-31T08:16:44;100508.66;;;20.57;97.45
19777;BME280;10047;42.490;26.012;2022-10-31T08:19:09;100567.84;;;20.90;95.96
19777;BME280;10047;42.490;26.012;2022-10-31T08:21:34;100566.78;;;20.92;96.13
19777;BME280;10047;42.490;26.012;2022-10-31T08:24:00;100570.44;;;21.44;96.11
19777;BME280;10047;42.490;26.012;2022-10-31T08:26:25;100597.41;;;21.54;95.99
19777;BME280;10047;42.490;26.012;2022-10-31T08:28:51;100597.03;;;21.73;89.82
19777;BME280;10047;42.490;26.012;2022-10-31T08:31:16;100569.56;;;21.58;87.49
19777;BME280;10047;42.490;26.012;2022-10-31T08:33:41;100579.31;;;21.67;87.85
19777;BME280;10047;42.490;26.012;2022-10-31T08:36:07;100604.88;;;21.86;85.73
19777;BME280;10047;42.490;26.012;2022-10-31T08:38:32;100583.47;;;21.96;85.95
19777;BME280;10047;42.490;26.012;2022-10-31T08:40:58;100554.06;;;21.97;85.52
19777;BME280;10047;42.490;26.012;2022-10-31T08:43:23;100535.81;;;21.86;83.95
19777;BME280;10047;42.490;26.012;2022-10-31T08:45:49;100601.56;;;22.23;83.99
19777;BME280;10047;42.490;26.012;2022-10-31T08:48:16;100554.22;;;21.55;83.63
19777;BME280;10047;42.490;26.012;2022-10-31T08:50:42;100611.41;;;22.30;81.96
19777;BME280;10047;42.490;26.012;2022-10-31T08:53:16;100614.00;;;22.30;78.50
19777;BME280;10047;42.490;26.012;2022-10-31T08:55:44;100567.75;;;22.24;79.73
19777;BME280;10047;42.490;26.012;2022-10-31T08:58:15;100613.34;;;22.79;75.04
19777;BME280;10047;42.490;26.012;2022-10-31T09:00:41;100604.31;;;22.59;73.85
19777;BME280;10047;42.490;26.012;2022-10-31T09:03:33;100607.72;;;22.72;73.63
19777;BME280;10047;42.490;26.012;2022-10-31T09:06:01;100596.56;;;22.72;75.42
19777;BME280;10047;42.490;26.012;2022-10-31T09:08:29;100558.03;;;22.40;77.08
19777;BME280;10047;42.490;26.012;2022-10-31T09:10:56;100619.88;;;22.97;74.29
19777;BME280;10047;42.490;26.012;2022-10-31T09:13:22;100591.16;;;22.75;76.39
19777;BME280;10047;42.490;26.012;2022-10-31T09:15:49;100606.59;;;22.89;74.38
19777;BME280;10047;42.490;26.012;2022-10-31T09:18:16;100600.78;;;22.73;71.32
19777;BME280;10047;42.490;26.012;2022-10-31T09:20:43;100574.44;;;22.91;72.19
19777;BME280;10047;42.490;26.012;2022-10-31T09:23:17;100605.59;;;23.64;68.80
19777;BME280;10047;42.490;26.012;2022-10-31T09:25:44;100605.03;;;23.48;67.39
19777;BME280;10047;42.490;26.012;2022-10-31T09:28:14;100612.72;;;23.49;66.66
19777;BME280;10047;42.490;26.012;2022-10-31T09:30:39;100534.50;;;22.69;69.05
19777;BME280;10047;42.490;26.012;2022-10-31T09:33:12;100603.31;;;23.36;67.91
19777;BME280;10047;42.490;26.012;2022-10-31T09:35:39;100549.16;;;22.70;69.89
19777;BME280;10047;42.490;26.012;2022-10-31T09:38:10;100582.03;;;23.18;67.49
19777;BME280;10047;42.490;26.012;2022-10-31T09:40:38;100509.00;;;23.11;67.86
19777;BME280;10047;42.490;26.012;2022-10-31T09:46:08;100609.84;;;23.88;65.78
19777;BME280;10047;42.490;26.012;2022-10-31T09:51:47;100579.00;;;23.37;63.62
19777;BME280;10047;42.490;26.012;2022-10-31T09:54:21;100613.34;;;23.53;62.64
19777;BME280;10047;42.490;26.012;2022-10-31T09:56:50;100553.88;;;23.84;61.13
19777;BME280;10047;42.490;26.012;2022-10-31T09:59:30;100554.91;;;23.82;61.09
19777;BME280;10047;42.490;26.012;2022-10-31T10:02:00;100560.63;;;23.98;61.48
19777;BME280;10047;42.490;26.012;2022-10-31T10:07:21;100591.47;;;24.26;61.26
19777;BME280;10047;42.490;26.012;2022-10-31T10:09:49;100530.84;;;23.91;59.57
19777;BME280;10047;42.490;26.012;2022-10-31T10:17:57;100572.22;;;24.51;57.00
19777;BME280;10047;42.490;26.012;2022-10-31T10:26:20;100567.50;;;24.34;58.48
19777;BME280;10047;42.490;26.012;2022-10-31T10:28:56;100572.78;;;23.97;58.58
19777;BME280;10047;42.490;26.012;2022-10-31T10:31:42;100570.84;;;24.80;58.13
19777;BME280;10047;42.490;26.012;2022-10-31T10:36:53;100572.88;;;24.87;54.32
19777;BME280;10047;42.490;26.012;2022-10-31T10:39:37;100496.47;;;24.55;54.46
19777;BME280;10047;42.490;26.012;2022-10-31T10:42:11;100553.69;;;24.66;55.08
19777;BME280;10047;42.490;26.012;2022-10-31T10:44:57;100528.00;;;25.17;54.23
19777;BME280;10047;42.490;26.012;2022-10-31T10:47:46;100503.06;;;24.92;53.17
19777;BME280;10047;42.490;26.012;2022-10-31T10:50:18;100456.38;;;24.91;53.68
19777;BME280;10047;42.490;26.012;2022-10-31T10:57:58;100558.44;;;25.59;52.28
19777;BME280;10047;42.490;26.012;2022-10-31T11:00:29;100546.38;;;25.47;51.56
19777;BME280;10047;42.490;26.012;2022-10-31T11:02:56;100551.78;;;25.66;51.53
19777;BME280;10047;42.490;26.012;2022-10-31T11:05:30;100536.16;;;25.66;50.71
19777;BME280;10047;42.490;26.012;2022-10-31T11:07:58;100504.16;;;25.33;51.30
19777;BME280;10047;42.490;26.012;2022-10-31T11:10:23;100495.63;;;24.88;52.85
19777;BME280;10047;42.490;26.012;2022-10-31T11:13:22;100543.41;;;24.98;52.54
19777;BME280;10047;42.490;26.012;2022-10-31T11:16:10;100533.59;;;24.57;54.19
19777;BME280;10047;42.490;26.012;2022-10-31T11:18:45;100478.81;;;24.15;53.85
19777;BME280;10047;42.490;26.012;2022-10-31T11:21:28;100530.44;;;24.76;55.54
19777;BME280;10047;42.490;26.012;2022-10-31T11:24:04;100534.81;;;24.07;55.65
19777;BME280;10047;42.490;26.012;2022-10-31T11:26:38;100477.91;;;24.60;53.90
19777;BME280;10047;42.490;26.012;2022-10-31T11:29:05;100431.69;;;24.19;53.74
19777;BME280;10047;42.490;26.012;2022-10-31T11:31:35;100517.25;;;25.53;52.21
19777;BME280;10047;42.490;26.012;2022-10-31T11:34:03;100523.44;;;24.65;52.53
19777;BME280;10047;42.490;26.012;2022-10-31T11:36:39;100523.66;;;24.51;54.34
19777;BME280;10047;42.490;26.012;2022-10-31T11:39:16;100491.63;;;24.40;54.15
19777;BME280;10047;42.490;26.012;2022-10-31T11:41:43;100479.31;;;24.20;54.49
19777;BME280;10047;42.490;26.012;2022-10-31T11:44:20;100488.28;;;24.82;52.74
19777;BME280;10047;42.490;26.012;2022-10-31T11:46:50;100472.25;;;24.22;52.78
19777;BME280;10047;42.490;26.012;2022-10-31T11:51:59;100512.41;;;24.29;53.44
19777;BME280;10047;42.490;26.012;2022-10-31T11:54:50;100504.16;;;24.57;52.70
19777;BME280;10047;42.490;26.012;2022-10-31T11:57:41;100505.31;;;24.86;53.54
19777;BME280;10047;42.490;26.012;2022-10-31T12:00:29;100495.34;;;25.56;51.38
19777;BME280;10047;42.490;26.012;2022-10-31T12:03:15;100502.63;;;24.76;52.32
19777;BME280;10047;42.490;26.012;2022-10-31T12:05:47;100508.84;;;25.07;52.06
19777;BME280;10047;42.490;26.012;2022-10-31T12:08:14;100494.69;;;25.63;50.62
19777;BME280;10047;42.490;26.012;2022-10-31T12:16:20;100461.47;;;24.37;54.30
19777;BME280;10047;42.490;26.012;2022-10-31T12:18:59;100477.06;;;24.59;53.68
19777;BME280;10047;42.490;26.012;2022-10-31T12:30:24;100453.44;;;24.29;54.42
19777;BME280;10047;42.490;26.012;2022-10-31T12:35:45;100483.31;;;25.01;53.01
19777;BME280;10047;42.490;26.012;2022-10-31T12:57:14;100512.06;;;24.55;55.35
19777;BME280;10047;42.490;26.012;2022-10-31T13:00:16;100504.06;;;25.66;52.15
19777;BME280;10047;42.490;26.012;2022-10-31T13:05:13;100511.63;;;25.69;51.25
19777;BME280;10047;42.490;26.012;2022-10-31T13:08:29;100509.19;;;25.77;50.37
19777;BME280;10047;42.490;26.012;2022-10-31T13:10:41;100459.56;;;25.78;49.39
19777;BME280;10047;42.490;26.012;2022-10-31T13:13:15;100513.38;;;25.37;50.90
19777;BME280;10047;42.490;26.012;2022-10-31T13:16:00;100471.94;;;25.65;50.02
19777;BME280;10047;42.490;26.012;2022-10-31T13:18:35;100513.78;;;25.64;50.62
19777;BME280;10047;42.490;26.012;2022-10-31T13:21:09;100481.69;;;24.89;51.11
19777;BME280;10047;42.490;26.012;2022-10-31T13:23:37;100495.63;;;25.42;50.78
19777;BME280;10047;42.490;26.012;2022-10-31T13:26:15;100507.75;;;25.21;51.98
19777;BME280;10047;42.490;26.012;2022-10-31T13:28:59;100524.69;;;25.15;51.06
19777;BME280;10047;42.490;26.012;2022-10-31T13:31:26;100529.16;;;25.24;52.21
19777;BME280;10047;42.490;26.012;2022-10-31T13:33:55;100482.38;;;24.69;51.66
19777;BME280;10047;42.490;26.012;2022-10-31T13:36:33;100508.75;;;24.98;52.05
19777;BME280;10047;42.490;26.012;2022-10-31T13:39:21;100530.00;;;25.25;51.80
19777;BME280;10047;42.490;26.012;2022-10-31T13:45:17;100467.81;;;25.00;52.07
19777;BME280;10047;42.490;26.012;2022-10-31T13:47:58;100430.78;;;24.42;52.84
19777;BME280;10047;42.490;26.012;2022-10-31T13:50:32;100488.56;;;24.79;52.62
19777;BME280;10047;42.490;26.012;2022-10-31T13:55:44;100459.69;;;24.71;51.79
19777;BME280;10047;42.490;26.012;2022-10-31T14:00:59;100490.84;;;25.15;52.11
19777;BME280;10047;42.490;26.012;2022-10-31T14:03:25;100442.69;;;26.24;47.29
19777;BME280;10047;42.490;26.012;2022-10-31T14:05:54;100476.50;;;27.43;45.28
19777;BME280;10047;42.490;26.012;2022-10-31T14:08:22;100514.78;;;27.14;45.43
19777;BME280;10047;42.490;26.012;2022-10-31T14:10:51;100516.50;;;26.45;46.08
19777;BME280;10047;42.490;26.012;2022-10-31T14:15:54;100536.09;;;25.77;49.44
19777;BME280;10047;42.490;26.012;2022-10-31T14:20:56;100537.75;;;25.78;49.82
19777;BME280;10047;42.490;26.012;2022-10-31T14:23:37;100537.66;;;26.01;47.94
19777;BME280;10047;42.490;26.012;2022-10-31T14:28:50;100472.72;;;23.35;56.51
19777;BME280;10047;42.490;26.012;2022-10-31T14:33:53;100534.69;;;23.27;59.93
19777;BME280;10047;42.490;26.012;2022-10-31T14:36:28;100550.34;;;23.25;60.05
19777;BME280;10047;42.490;26.012;2022-10-31T14:39:18;100559.56;;;23.29;60.69
19777;BME280;10047;42.490;26.012;2022-10-31T14:47:49;100560.56;;;22.80;65.64
19777;BME280;10047;42.490;26.012;2022-10-31T14:50:32;100567.81;;;22.75;66.24
19777;BME280;10047;42.490;26.012;2022-10-31T14:53:04;100531.72;;;22.34;68.49
19777;BME280;10047;42.490;26.012;2022-10-31T14:55:31;100504.22;;;22.19;68.36
19777;BME280;10047;42.490;26.012;2022-10-31T14:58:03;100512.81;;;22.07;69.61